Time;durP1;ratioP1;P1;durP2;ratioP2;P2;SDS_P1;SDS_P2;PMS_P1;PMS_P2;Temp;Humidity;BMP_temperature;BMP_pressure;BME280_temperature;BME280_humidity;BME280_pressure;Samples;Min_cycle;Max_cycle;Signal;HPM_P1;HPM_P2
2023/08/19 00:01:38;;;;;;;0.50;0.50;;;20.00;99.90;;;;;;5112919;27;20154;-76
2023/08/19 00:04:04;;;;;;;0.57;0.57;;;20.00;99.90;;;;;;5131015;27;20050;-76
2023/08/19 00:06:34;;;;;;;0.47;0.30;;;20.00;99.90;;;;;;5131232;27;20055;-76
2023/08/19 00:09:04;;;;;;;0.40;0.40;;;20.00;99.90;;;;;;5113358;27;20205;-76
2023/08/19 00:11:33;;;;;;;0.30;0.30;;;19.90;99.90;;;;;;5130833;27;20047;-75
2023/08/19 00:13:59;;;;;;;0.30;0.30;;;20.00;99.90;;;;;;5131170;27;20061;-76
2023/08/19 00:16:25;;;;;;;0.30;0.30;;;20.00;99.90;;;;;;5130630;27;20051;-76
2023/08/19 00:18:51;;;;;;;0.30;0.30;;;19.90;99.90;;;;;;5131283;27;20050;-75
2023/08/19 00:21:16;;;;;;;0.20;0.20;;;20.00;99.90;;;;;;5131591;27;20046;-76
2023/08/19 00:23:42;;;;;;;;;;;19.90;99.90;;;;;;5131361;27;20111;-76
2023/08/19 00:26:11;;;;;;;0.60;0.60;;;19.90;99.90;;;;;;5131474;27;20392;-76
2023/08/19 00:28:37;;;;;;;0.20;0.20;;;19.90;99.90;;;;;;5130896;27;20051;-75
2023/08/19 00:31:03;;;;;;;0.68;0.68;;;19.90;99.90;;;;;;5113006;27;20047;-76
2023/08/19 00:33:28;;;;;;;0.10;0.10;;;19.90;99.90;;;;;;5130380;27;20446;-76
2023/08/19 00:35:54;;;;;;;;;;;19.90;99.90;;;;;;5131407;27;20042;-75
2023/08/19 00:38:20;;;;;;;0.20;0.20;;;19.90;99.90;;;;;;5112131;27;20100;-77
2023/08/19 00:40:46;;;;;;;;;;;19.70;99.90;;;;;;5131546;27;20480;-76
2023/08/19 00:43:11;;;;;;;;;;;19.80;99.90;;;;;;5125560;27;19980;-76
2023/08/19 00:45:38;;;;;;;;;;;19.80;99.90;;;;;;5119689;27;19919;-76
2023/08/19 00:48:04;;;;;;;;;;;19.80;99.90;;;;;;5131228;27;20190;-76
2023/08/19 00:50:29;;;;;;;;;;;19.70;99.90;;;;;;5128723;27;20674;-76
2023/08/19 00:52:55;;;;;;;;;;;19.70;99.90;;;;;;5131032;27;19969;-76
2023/08/19 00:55:21;;;;;;;;;;;19.70;99.90;;;;;;5112472;27;19991;-77
2023/08/19 00:57:47;;;;;;;;;;;19.70;99.90;;;;;;5130732;27;20022;-76
2023/08/19 01:00:12;;;;;;;;;;;19.70;99.90;;;;;;5130784;27;19920;-75
2023/08/19 01:02:38;;;;;;;;;;;19.70;99.90;;;;;;5129912;27;20389;-77
2023/08/19 01:05:04;;;;;;;;;;;19.60;99.90;;;;;;5129840;27;19975;-76
2023/08/19 01:07:37;;;;;;;;;;;19.60;99.90;;;;;;5130328;27;19923;-76
2023/08/19 01:10:15;;;;;;;;;;;19.50;99.90;;;;;;5130524;27;19919;-76
2023/08/19 01:12:48;;;;;;;;;;;19.50;99.90;;;;;;5130007;27;20506;-75
2023/08/19 01:15:25;;;;;;;;;;;19.50;99.90;;;;;;5130728;27;20373;-76
2023/08/19 01:17:51;;;;;;;;;;;19.50;99.90;;;;;;5129559;27;19954;-76
2023/08/19 01:20:18;;;;;;;;;;;19.40;99.90;;;;;;5130679;27;19923;-76
2023/08/19 01:22:44;;;;;;;;;;;19.40;99.90;;;;;;5130069;27;19927;-77
2023/08/19 01:25:10;;;;;;;;;;;19.40;99.90;;;;;;5130542;27;20010;-76
2023/08/19 01:27:36;;;;;;;;;;;19.40;99.90;;;;;;5094988;27;20048;-76
2023/08/19 01:30:01;;;;;;;;;;;19.30;99.90;;;;;;5130490;27;19959;-76
2023/08/19 01:32:27;;;;;;;;;;;19.30;99.90;;;;;;5130077;27;20023;-76
2023/08/19 01:34:53;;;;;;;;;;;19.30;99.90;;;;;;5130493;27;20374;-76
2023/08/19 01:37:25;;;;;;;;;;;19.20;99.90;;;;;;5130320;27;19957;-77
2023/08/19 01:39:52;;;;;;;;;;;19.20;99.90;;;;;;5129128;27;19923;-78
2023/08/19 01:42:19;;;;;;;;;;;19.20;99.90;;;;;;5130168;28;20337;-76
2023/08/19 01:44:45;;;;;;;;;;;19.10;99.90;;;;;;5113263;28;19920;-77
2023/08/19 01:47:16;;;;;;;;;;;19.10;99.90;;;;;;5129732;28;20019;-77
2023/08/19 01:49:45;;;;;;;;;;;19.10;99.90;;;;;;5129903;27;19991;-76
2023/08/19 01:52:12;;;;;;;;;;;19.10;99.90;;;;;;5130024;27;19980;-77
2023/08/19 01:54:38;;;;;;;;;;;19.00;99.90;;;;;;5129729;28;19934;-76
2023/08/19 01:57:05;;;;;;;;;;;19.00;99.90;;;;;;5129498;28;19923;-77
2023/08/19 01:59:30;;;;;;;;;;;19.00;99.90;;;;;;5129702;28;20354;-76
2023/08/19 02:01:56;;;;;;;;;;;18.90;99.90;;;;;;5111446;28;19920;-76
2023/08/19 02:04:21;;;;;;;;;;;18.90;99.90;;;;;;5130028;28;19983;-77
2023/08/19 02:06:47;;;;;;;;;;;18.90;99.90;;;;;;5129375;28;20009;-76
2023/08/19 02:09:12;;;;;;;;;;;18.90;99.90;;;;;;5130001;28;20319;-77
2023/08/19 02:11:38;;;;;;;;;;;18.90;99.90;;;;;;5129499;28;19968;-78
2023/08/19 02:14:04;;;;;;;;;;;18.90;99.90;;;;;;5129731;28;19945;-77
2023/08/19 02:16:30;;;;;;;;;;;18.90;99.90;;;;;;5131479;27;20373;-76
2023/08/19 02:18:58;;;;;;;;;;;18.90;99.90;;;;;;5133919;27;19923;-77
2023/08/19 02:21:24;;;;;;;;;;;18.90;99.90;;;;;;5133871;27;19919;-76
2023/08/19 02:23:49;;;;;;;;;;;18.90;99.90;;;;;;5132978;27;19996;-77
2023/08/19 02:26:15;;;;;;;;;;;18.90;99.90;;;;;;5133910;27;20025;-77
2023/08/19 02:28:41;;;;;;;;;;;18.90;99.90;;;;;;5133372;27;19930;-77
2023/08/19 02:31:06;;;;;;;;;;;19.00;99.90;;;;;;5133917;27;19919;-77
2023/08/19 02:33:32;;;;;;;;;;;19.00;99.90;;;;;;5133347;27;19923;-77
2023/08/19 02:35:57;;;;;;;;;;;18.90;99.90;;;;;;5133816;27;20769;-76
2023/08/19 02:38:23;;;;;;;;;;;18.90;99.90;;;;;;5133148;27;19923;-76
2023/08/19 02:40:52;;;;;;;;;;;19.00;99.90;;;;;;5133220;27;19948;-76
2023/08/19 02:43:18;;;;;;;;;;;18.90;99.90;;;;;;5126755;27;19931;-77
2023/08/19 02:45:43;;;;;;;;;;;18.90;99.90;;;;;;5123248;27;20445;-77
2023/08/19 02:48:09;;;;;;;;;;;19.00;99.90;;;;;;5133205;27;19919;-77
2023/08/19 02:50:35;;;;;;;;;;;19.00;99.90;;;;;;5132752;27;19926;-77
2023/08/19 02:53:00;;;;;;;;;;;19.00;99.90;;;;;;5114395;27;19927;-76
2023/08/19 02:55:26;;;;;;;;;;;19.00;99.90;;;;;;5133216;27;19923;-76
2023/08/19 02:57:51;;;;;;;;;;;19.00;99.90;;;;;;5132659;27;19923;-76
2023/08/19 03:00:17;;;;;;;;;;;19.10;99.90;;;;;;5133275;27;19927;-77
2023/08/19 03:02:46;;;;;;;;;;;19.10;99.90;;;;;;5132579;27;19930;-77
2023/08/19 03:05:12;;;;;;;;;;;19.10;99.90;;;;;;5133156;27;19920;-76
2023/08/19 03:07:38;;;;;;;;;;;19.20;99.90;;;;;;5132561;27;19934;-76
2023/08/19 03:10:04;;;;;;;;;;;19.20;99.90;;;;;;5132898;27;19924;-76
2023/08/19 03:12:30;;;;;;;;;;;19.30;99.90;;;;;;5132530;27;20006;-77
2023/08/19 03:14:55;;;;;;;;;;;19.30;99.90;;;;;;5132597;27;20002;-76
2023/08/19 03:17:21;;;;;;;;;;;19.30;99.90;;;;;;5114799;27;20034;-76
2023/08/19 03:19:47;;;;;;;;;;;19.30;99.90;;;;;;5132174;27;19923;-76
2023/08/19 03:22:12;;;;;;;;;;;19.30;99.90;;;;;;5132744;27;19920;-77
2023/08/19 03:24:38;;;;;;;;;;;19.30;99.90;;;;;;5131833;27;20491;-77
2023/08/19 03:27:04;;;;;;;;;;;19.30;99.90;;;;;;5131423;27;19924;-76
2023/08/19 03:29:29;;;;;;;;;;;19.30;99.90;;;;;;5132597;27;19923;-76
2023/08/19 03:31:56;;;;;;;;;;;19.30;99.90;;;;;;5132177;27;19942;-77
2023/08/19 03:34:22;;;;;;;;;;;19.20;99.90;;;;;;5132600;27;19991;-77
2023/08/19 03:36:48;;;;;;;;;;;19.20;99.90;;;;;;5132192;27;19964;-76
2023/08/19 03:39:14;;;;;;;;;;;19.20;99.90;;;;;;5132739;27;19930;-76
2023/08/19 03:41:39;;;;;;;;;;;19.20;99.90;;;;;;5132000;27;20750;-76
2023/08/19 03:44:05;;;;;;;;;;;19.20;99.90;;;;;;5131142;27;20020;-76
2023/08/19 03:46:30;;;;;;;;;;;19.20;99.90;;;;;;5132106;27;19920;-77
2023/08/19 03:48:56;;;;;;;;;;;19.20;99.90;;;;;;5131590;27;20021;-76
2023/08/19 03:51:21;;;;;;;;;;;19.20;99.90;;;;;;5132023;27;19930;-77
2023/08/19 03:53:47;;;;;;;;;;;19.20;99.90;;;;;;5131869;27;19927;-76
2023/08/19 03:56:13;;;;;;;;;;;19.20;99.90;;;;;;5132159;27;20010;-77
2023/08/19 03:58:38;;;;;;;;;;;19.20;99.90;;;;;;5113252;27;19919;-77
2023/08/19 04:01:05;;;;;;;;;;;19.20;99.90;;;;;;5131998;27;20010;-76
2023/08/19 04:03:30;;;;;;;;;;;19.20;99.90;;;;;;5131842;27;20301;-77
2023/08/19 04:05:56;;;;;;;;;;;19.20;99.90;;;;;;5112883;27;19915;-76
2023/08/19 04:08:21;;;;;;;;;;;19.20;99.90;;;;;;5131741;27;20357;-76
2023/08/19 04:10:47;;;;;;;;;;;19.20;99.90;;;;;;5131152;27;19923;-77
2023/08/19 04:13:12;;;;;;;;;;;19.20;99.90;;;;;;5129374;27;19949;-77
2023/08/19 04:15:38;;;;;;;;;;;19.20;99.90;;;;;;5131093;27;20015;-78
2023/08/19 04:18:03;;;;;;;;;;;19.20;99.90;;;;;;5113379;27;19919;-78
2023/08/19 04:20:29;;;;;;;;;;;19.30;99.90;;;;;;5113389;27;19968;-76
2023/08/19 04:22:55;;;;;;;;;;;19.30;99.90;;;;;;5131306;27;19999;-76
2023/08/19 04:25:20;;;;;;;;;;;19.30;99.90;;;;;;5113139;27;19923;-78
2023/08/19 04:27:46;;;;;;;;;;;19.30;99.90;;;;;;5131021;27;19923;-76
2023/08/19 04:30:12;;;;;;;;;;;19.30;99.90;;;;;;5131447;27;19976;-76
2023/08/19 04:32:38;;;;;;;;;;;19.30;99.90;;;;;;5131038;27;19942;-77
2023/08/19 04:35:04;;;;;;;;;;;19.30;99.90;;;;;;5131114;27;19930;-76
2023/08/19 04:37:29;;;;;;;;;;;19.40;99.90;;;;;;5130928;27;19959;-77
2023/08/19 04:39:55;;;;;;;;;;;19.40;99.90;;;;;;5112306;27;19977;-77
2023/08/19 04:42:20;;;;;;;;;;;19.40;99.90;;;;;;5131056;27;19923;-76
2023/08/19 04:44:46;;;;;;;;;;;19.40;99.90;;;;;;5129472;27;19969;-76
2023/08/19 04:47:11;;;;;;;;;;;19.40;99.90;;;;;;5113566;27;19923;-76
2023/08/19 04:49:37;;;;;;;;;;;19.40;99.90;;;;;;5131107;27;19933;-79
2023/08/19 04:52:04;;;;;;;;;;;19.50;99.90;;;;;;5130337;27;20292;-78
2023/08/19 04:54:30;;;;;;;;;;;19.50;99.90;;;;;;5112649;27;19923;-77
2023/08/19 04:56:55;;;;;;;;;;;19.60;99.90;;;;;;5130285;27;19926;-76
2023/08/19 04:59:21;;;;;;;;;;;19.60;99.90;;;;;;5131167;27;19930;-77
2023/08/19 05:01:46;;;;;;;;;;;19.70;99.90;;;;;;5130194;27;20259;-78
2023/08/19 05:04:12;;;;;;;;;;;19.70;99.90;;;;;;5112712;27;19923;-76
2023/08/19 05:06:37;;;;;;;;;;;19.70;99.90;;;;;;5130573;27;20050;-77
2023/08/19 05:09:03;;;;;;;;;;;19.80;99.90;;;;;;5130197;27;19924;-77
2023/08/19 05:11:29;;;;;;;;;;;19.90;99.90;;;;;;5130841;27;19923;-77
2023/08/19 05:13:54;;;;;;;;;;;20.00;99.90;;;;;;5129639;27;19931;-77
2023/08/19 05:16:20;;;;;;;;;;;20.00;99.90;;;;;;5130387;27;19927;-77
2023/08/19 05:18:50;;;;;;;;;;;20.10;99.90;;;;;;5129903;27;19958;-76
2023/08/19 05:21:15;;;;;;;;;;;20.20;99.90;;;;;;5130203;27;20278;-77
2023/08/19 05:23:41;;;;;;;;;;;20.20;99.90;;;;;;5130871;27;19927;-77
2023/08/19 05:26:06;;;;;;;;;;;20.20;99.90;;;;;;5129845;27;20354;-77
2023/08/19 05:28:32;;;;;;;;;;;20.40;99.90;;;;;;5130829;27;19946;-76
2023/08/19 05:30:58;;;;;;;;;;;20.40;99.90;;;;;;5129891;27;19923;-77
2023/08/19 05:33:23;;;;;;;;;;;20.50;99.90;;;;;;5130808;27;19966;-77
2023/08/19 05:35:49;;;;;;;;;;;20.60;99.90;;;;;;5130117;27;20026;-77
2023/08/19 05:38:14;;;;;;;;;;;20.60;99.90;;;;;;5130222;27;19974;-77
2023/08/19 05:40:40;;;;;;;;;;;20.70;99.90;;;;;;5130136;27;19923;-76
2023/08/19 05:43:06;;;;;;;;;;;20.70;99.90;;;;;;5124399;27;20455;-76
2023/08/19 05:45:34;;;;;;;;;;;20.70;99.90;;;;;;5130295;28;20262;-77
2023/08/19 05:48:00;;;;;;;;;;;20.80;99.90;;;;;;5129559;28;19927;-78
2023/08/19 05:50:26;;;;;;;;;;;20.80;99.90;;;;;;5131957;27;19924;-77
2023/08/19 05:52:52;;;;;;;;;;;20.90;99.90;;;;;;5133775;27;20285;-77
2023/08/19 05:55:17;;;;;;;;;;;21.00;99.90;;;;;;5134720;27;19934;-77
2023/08/19 05:57:44;;;;;;;;;;;21.10;99.90;;;;;;5134319;27;19923;-77
2023/08/19 06:00:10;;;;;;;;;;;21.20;99.90;;;;;;5115680;27;19923;-76
2023/08/19 06:02:35;;;;;;;;;;;21.20;99.90;;;;;;5133993;27;19945;-76
2023/08/19 06:05:01;;;;;;;;;;;21.30;99.90;;;;;;5133764;27;19923;-77
2023/08/19 06:07:27;;;;;;;;;;;21.40;99.90;;;;;;5134295;27;20361;-76
2023/08/19 06:09:52;;;;;;;;;;;21.50;99.90;;;;;;5133629;27;20429;-77
2023/08/19 06:12:18;;;;;;;;;;;21.50;99.90;;;;;;5133983;27;19927;-76
2023/08/19 06:14:44;;;;;;;;;;;21.60;99.90;;;;;;5133896;27;19919;-76
2023/08/19 06:17:09;;;;;;;;;;;21.60;99.90;;;;;;5133497;27;20440;-77
2023/08/19 06:19:35;;;;;;;;;;;21.70;99.90;;;;;;5134004;27;19927;-77
2023/08/19 06:22:00;;;;;;;;;;;21.70;99.90;;;;;;5133155;27;20361;-75
2023/08/19 06:24:27;;;;;;;;;;;21.80;99.90;;;;;;5134057;27;19943;-77
2023/08/19 06:26:52;;;;;;;;;;;21.80;99.90;;;;;;5133237;27;19930;-76
2023/08/19 06:29:18;;;;;;;;;;;21.90;99.90;;;;;;5133732;27;19927;-76
2023/08/19 06:31:44;;;;;;;;;;;21.90;99.90;;;;;;5133807;27;19923;-77
2023/08/19 06:34:09;;;;;;;;;;;22.00;99.90;;;;;;5132986;27;19919;-76
2023/08/19 06:36:36;;;;;;;;;;;22.10;99.90;;;;;;5132118;27;20373;-77
2023/08/19 06:39:04;;;;;;;;;;;22.10;99.90;;;;;;5130394;27;19923;-76
2023/08/19 06:41:32;;;;;;;;;;;22.20;99.90;;;;;;5133717;27;20289;-76
2023/08/19 06:44:01;;;;;;;;;;;22.20;99.90;;;;;;5127560;27;20019;-76
2023/08/19 06:46:28;;;;;;;;;;;22.20;99.90;;;;;;5133509;27;20022;-77
2023/08/19 06:48:54;;;;;;;;;;;22.20;99.90;;;;;;5132791;27;20391;-77
2023/08/19 06:51:19;;;;;;;;;;;22.20;99.90;;;;;;5114891;27;19937;-76
2023/08/19 06:53:45;;;;;;;;;;;22.10;99.90;;;;;;5112850;28;20096;-76
2023/08/19 06:56:23;;;;;;;;;;;22.00;99.90;;;;;;5112218;28;20749;-76
2023/08/19 06:58:53;;;;;;;;;;;22.00;99.90;;;;;;5112543;28;19923;-77
2023/08/19 07:01:23;;;;;;;;;;;21.90;99.90;;;;;;5112623;28;19924;-76
2023/08/19 07:03:52;;;;;;;;;;;21.90;99.90;;;;;;5119239;27;20012;-76
2023/08/19 07:06:19;;;;;;;;;;;21.90;99.90;;;;;;5133169;27;19923;-77
2023/08/19 07:08:45;;;;;;;;;;;21.80;99.90;;;;;;5132969;27;19923;-77
2023/08/19 07:11:11;;;;;;;;;;;21.80;99.90;;;;;;5114296;27;20499;-76
2023/08/19 07:13:36;;;;;;;;;;;21.80;99.90;;;;;;5132787;27;19923;-77
2023/08/19 07:16:03;;;;;;;;;;;21.80;99.90;;;;;;5132202;27;20381;-77
2023/08/19 07:18:33;;;;;;;;;;;21.80;99.90;;;;;;5132983;27;20024;-76
2023/08/19 07:20:59;;;;;;;;;;;21.80;99.90;;;;;;5132731;27;19946;-77
2023/08/19 07:23:25;;;;;;;;;;;21.90;99.90;;;;;;5133041;27;19919;-76
2023/08/19 07:25:50;;;;;;;;;;;21.90;99.90;;;;;;5114853;27;19934;-77
2023/08/19 07:28:19;;;;;;;;;;;22.00;99.90;;;;;;5132389;27;19927;-77
2023/08/19 07:30:45;;;;;;;;;;;22.00;99.90;;;;;;5132609;27;19919;-76
2023/08/19 07:33:11;;;;;;;;;;;22.10;99.90;;;;;;5132058;27;19930;-77
2023/08/19 07:35:38;;;;;;;;;;;22.20;99.90;;;;;;5132771;27;19919;-77
2023/08/19 07:38:04;;;;;;;;;;;22.30;99.90;;;;;;5113663;27;19942;-78
2023/08/19 07:40:30;;;;;;;;;;;22.40;99.90;;;;;;5132347;27;19920;-78
2023/08/19 07:42:55;;;;;;;;;;;22.50;99.90;;;;;;5128577;27;20369;-77
2023/08/19 07:45:21;;;;;;;;;;;22.60;99.90;;;;;;5119318;27;20006;-76
2023/08/19 07:47:46;;;;;;;;;;;22.70;99.90;;;;;;5132234;27;19990;-77
2023/08/19 07:50:12;;;;;;;;;;;22.70;99.90;;;;;;5131810;27;19976;-77
2023/08/19 07:52:37;;;;;;;;;;;22.80;99.90;;;;;;5132092;27;19934;-77
2023/08/19 07:55:04;;;;;;;;;;;22.90;99.90;;;;;;5131845;27;19923;-77
2023/08/19 07:57:29;;;;;;;;;;;23.00;99.90;;;;;;5132272;27;19964;-77
2023/08/19 07:59:55;;;;;;;;;;;23.00;99.90;;;;;;5131947;27;19928;-78
2023/08/19 08:02:20;;;;;;;;;;;23.10;99.90;;;;;;5132108;27;20428;-76
2023/08/19 08:04:46;;;;;;;;;;;23.20;99.90;;;;;;5132177;27;19923;-77
2023/08/19 08:07:11;;;;;;;;;;;23.20;99.90;;;;;;5131472;27;19966;-76
2023/08/19 08:09:38;;;;;;;;;;;23.20;99.90;;;;;;5113538;27;19930;-77
2023/08/19 08:12:04;;;;;;;;;;;23.20;99.90;;;;;;5112885;27;19966;-76
2023/08/19 08:14:29;;;;;;;;;;;23.30;99.90;;;;;;5131078;27;19980;-76
2023/08/19 08:16:56;;;;;;;;;;;23.30;99.90;;;;;;5131753;27;19923;-77
2023/08/19 08:19:28;;;;;;;;;;;23.40;99.90;;;;;;5096064;27;19924;-76
2023/08/19 08:21:54;;;;;;;;;;;23.50;99.90;;;;;;5131819;27;20022;-78
2023/08/19 08:24:20;;;;;;;;;;;23.50;99.90;;;;;;5131161;27;20010;-77
2023/08/19 08:26:46;;;;;;;;;;;23.60;99.90;;;;;;5131401;27;19962;-76
2023/08/19 08:29:11;;;;;;;;;;;23.70;99.90;;;;;;5131444;27;19963;-76
2023/08/19 08:31:37;;;;;;;;;;;23.80;99.90;;;;;;5113828;27;20363;-76
2023/08/19 08:34:03;;;;;;;;;;;23.80;99.90;;;;;;5135178;27;19927;-75
2023/08/19 08:36:28;;;;;;;;;;;23.90;99.90;;;;;;5140614;27;19971;-77
2023/08/19 08:38:54;;;;;;;;;;;24.10;99.90;;;;;;5113585;27;19923;-76
2023/08/19 08:41:20;;;;;;;;;;;24.20;99.90;;;;;;5131577;27;20017;-76
2023/08/19 08:43:46;;;;;;;;;;;24.30;99.90;;;;;;5120851;27;20374;-77
2023/08/19 08:46:12;;;;;;;;;;;24.40;99.90;;;;;;5124962;27;19972;-77
2023/08/19 08:48:38;;;;;;;;;;;24.50;99.90;;;;;;5126386;27;20274;-75
2023/08/19 08:51:04;;;;;;;;;;;24.60;99.90;;;;;;5130773;27;19980;-77
2023/08/19 08:53:30;;;;;;;;;;;24.80;99.90;;;;;;5131501;27;19923;-76
2023/08/19 08:55:58;;;;;;;;;;;24.90;99.90;;;;;;5131405;27;19971;-76
2023/08/19 08:58:23;;;;;;;;;;;24.90;99.90;;;;;;5130964;27;20008;-77
2023/08/19 09:00:49;;;;;;;;;;;25.10;99.90;;;;;;5113140;27;20245;-75
2023/08/19 09:03:19;;;;;;;;;;;25.20;99.90;;;;;;5130810;27;19970;-76
2023/08/19 09:05:48;;;;;;;;;;;25.30;99.90;;;;;;5131270;27;19923;-77
2023/08/19 09:08:15;;;;;;;;;;;25.40;99.90;;;;;;5130419;27;20294;-77
2023/08/19 09:10:47;;;;;;;;;;;25.60;99.90;;;;;;5114471;27;19919;-77
2023/08/19 09:13:15;;;;;;;;;;;25.70;99.90;;;;;;5111469;27;20254;-76
2023/08/19 09:15:41;;;;;;;;;;;26.00;99.90;;;;;;5130451;27;19930;-77
2023/08/19 09:18:07;;;;;;;;;;;26.30;99.90;;;;;;5130058;27;19927;-76
2023/08/19 09:20:33;;;;;;;;;;;26.40;99.90;;;;;;5112344;27;20302;-76
2023/08/19 09:23:06;;;;;;;;;;;26.50;99.90;;;;;;5130289;27;19923;-76
2023/08/19 09:25:32;;;;;;;;;;;26.70;99.90;;;;;;5130014;27;19930;-77
2023/08/19 09:27:57;;;;;;;;;;;27.00;99.90;;;;;;5130232;27;19919;-77
2023/08/19 09:30:30;;;;;;;;;;;27.10;99.90;;;;;;5112030;27;19926;-77
2023/08/19 09:32:59;;;;;;;;;;;27.10;99.90;;;;;;5129495;27;19927;-77
2023/08/19 09:35:25;;;;;;;;;;;27.00;99.90;;;;;;5130073;27;19930;-77
2023/08/19 09:37:50;;;;;;;;;;;27.00;99.90;;;;;;5130136;27;20671;-76
2023/08/19 09:40:20;;;;;;;;;;;27.00;99.90;;;;;;5111323;28;20601;-77
2023/08/19 09:42:47;;;;;;;;;;;27.00;99.90;;;;;;5128490;27;19932;-76
2023/08/19 09:45:16;;;;;;;;;;;27.10;99.90;;;;;;5115499;28;19997;-77
2023/08/19 09:47:51;;;;;;;;;;;27.00;99.90;;;;;;5130137;28;19935;-78
2023/08/19 09:50:18;;;;;;;;;;;27.10;99.90;;;;;;5129880;27;19923;-76
2023/08/19 09:52:57;;;;;;;;;;;27.10;99.90;;;;;;5130293;27;19923;-77
2023/08/19 09:55:27;;;;;;;;;;;27.20;99.90;;;;;;5111312;28;20414;-77
2023/08/19 09:57:53;;;;;;;;;;;27.00;99.90;;;;;;5130233;28;19919;-77
2023/08/19 10:00:18;;;;;;;;;;;27.20;99.90;;;;;;5129875;28;20024;-76
2023/08/19 10:02:44;;;;;;;;;;;27.30;99.90;;;;;;5130342;28;19968;-77
2023/08/19 10:05:10;;;;;;;;;;;27.30;99.90;;;;;;5129748;28;19930;-76
2023/08/19 10:07:38;;;;;;;;;;;27.30;99.90;;;;;;5130100;28;19919;-77
2023/08/19 10:10:04;;;;;;;;;;;27.20;99.90;;;;;;5111594;28;19931;-77
2023/08/19 10:12:34;;;;;;;;;;;27.10;99.90;;;;;;5129750;28;20026;-76
2023/08/19 10:15:00;;;;;;;;;;;27.00;99.90;;;;;;5129494;28;19974;-76
2023/08/19 10:17:27;;;;;;;;;;;26.90;99.90;;;;;;5129704;28;19971;-76
2023/08/19 10:19:56;;;;;;;;;;;26.70;99.90;;;;;;5129857;28;19923;-77
2023/08/19 10:22:22;;;;;;;;;;;26.50;99.90;;;;;;5129334;28;19923;-76
2023/08/19 10:24:47;;;;;;;;;;;26.40;99.90;;;;;;5129966;28;20367;-76
2023/08/19 10:27:17;;;;;;;;;;;26.30;99.90;;;;;;5111459;28;19919;-77
2023/08/19 10:29:42;;;;;;;;;;;26.10;99.90;;;;;;5111588;28;19923;-76
2023/08/19 10:32:27;;;;;;;;;;;26.00;99.90;;;;;;5111430;28;19942;-75
2023/08/19 10:35:00;;;;;;;;;;;25.80;99.90;;;;;;5111709;28;19930;-77
2023/08/19 10:37:28;;;;;;;;;;;25.70;99.90;;;;;;5132399;27;19920;-76
2023/08/19 10:40:05;;;;;;;;;;;25.50;99.90;;;;;;5133501;27;19919;-76
2023/08/19 10:42:30;;;;;;;;;;;25.40;99.90;;;;;;5133283;27;19919;-76
2023/08/19 10:44:56;;;;;;;;;;;25.40;99.90;;;;;;5117198;27;20354;-75
2023/08/19 10:47:22;;;;;;;;;;;25.50;99.90;;;;;;5133283;27;19923;-77
2023/08/19 10:49:47;;;;;;;;;;;25.60;99.90;;;;;;5133687;27;20274;-75
2023/08/19 10:52:20;;;;;;;;;;;25.80;99.90;;;;;;5132899;27;20336;-76
2023/08/19 10:54:46;;;;;;;;;;;26.10;99.90;;;;;;5133404;27;19984;-76
2023/08/19 10:57:17;;;;;;;;;;;26.30;99.90;;;;;;5132788;27;20416;-77
2023/08/19 10:59:46;;;;;;;;;;;26.50;99.90;;;;;;5133402;27;19930;-76
2023/08/19 11:02:12;;;;;;;;;;;26.80;99.90;;;;;;5133086;27;20284;-77
2023/08/19 11:04:47;;;;;;;;;;;26.90;99.90;;;;;;5133020;27;19935;-76
2023/08/19 11:07:13;;;;;;;;;;;26.90;99.90;;;;;;5133097;27;19924;-77
2023/08/19 11:09:48;;;;;;;;;;;26.90;99.90;;;;;;5133117;27;19930;-76
2023/08/19 11:12:18;;;;;;;;;;;26.80;99.90;;;;;;5132752;27;20365;-77
2023/08/19 11:14:45;;;;;;;;;;;26.60;99.90;;;;;;5132751;27;19930;-76
2023/08/19 11:17:10;;;;;;;;;;;26.40;99.90;;;;;;5132507;27;20385;-76
2023/08/19 11:19:36;;;;;;;;;;;26.30;99.90;;;;;;5132221;27;19971;-77
2023/08/19 11:22:01;;;;;;;;;;;26.20;99.90;;;;;;5132875;27;19923;-76
2023/08/19 11:24:30;;;;;;;;;;;26.20;99.90;;;;;;5132186;27;19930;-76
2023/08/19 11:26:56;;;;;;;;;;;26.40;99.90;;;;;;5114541;27;19975;-76
2023/08/19 11:29:22;;;;;;;;;;;26.70;99.90;;;;;;5131949;27;20055;-76
2023/08/19 11:31:47;;;;;;;;;;;27.10;99.90;;;;;;5132669;27;19923;-76
2023/08/19 11:34:13;;;;;;;;;;;27.50;99.90;;;;;;5132705;27;19923;-76
2023/08/19 11:36:39;;;;;;;;;;;27.80;99.90;;;;;;5131999;27;19919;-76
2023/08/19 11:39:06;;;;;;;;;;;28.10;99.90;;;;;;5132565;27;20293;-76
2023/08/19 11:41:32;;;;;;;;;;;28.40;99.90;;;;;;5132006;27;19931;-77
2023/08/19 11:43:58;;;;;;;;;;;28.60;99.90;;;;;;5120218;27;19923;-77
2023/08/19 11:46:27;;;;;;;;;;;28.50;99.90;;;;;;5127705;27;19923;-77
2023/08/19 11:48:53;;;;;;;;;;;28.60;99.90;;;;;;5131519;27;20303;-76
2023/08/19 11:51:20;;;;;;;;;;;28.80;99.90;;;;;;5146172;27;19980;-78
2023/08/19 11:53:48;;;;;;;;;;;28.70;99.90;;;;;;5099985;27;19919;-77
2023/08/19 11:56:13;;;;;;;;;;;28.50;99.90;;;;;;5123447;27;20010;-76
2023/08/19 11:58:40;;;;;;;;;;;28.50;99.90;;;;;;5099658;27;20463;-76
2023/08/19 12:01:06;;;;;;;;;;;28.50;99.90;;;;;;5110465;27;20414;-76
2023/08/19 12:03:31;;;;;;;;;;;28.50;99.90;;;;;;5120649;27;19965;-76
2023/08/19 12:05:57;;;;;;;;;;;28.50;99.90;;;;;;5121072;27;20354;-76
2023/08/19 12:08:32;;;;;;;;;;;28.50;99.90;;;;;;5130032;27;19923;-77
2023/08/19 12:10:58;;;;;;;;;;;28.40;99.90;;;;;;5112861;27;19924;-75
2023/08/19 12:13:27;;;;;;;;;;;28.50;99.90;;;;;;5132680;27;19923;-76
2023/08/19 12:15:53;;;;;;;;;;;28.50;99.90;;;;;;5128056;27;19923;-77
2023/08/19 12:18:19;;;;;;;;;;;28.30;99.90;;;;;;5123358;27;20281;-78
2023/08/19 12:20:45;;;;;;;;;;;27.60;99.90;;;;;;5129320;27;19929;-77
2023/08/19 12:23:11;;;;;;;;;;;28.10;99.90;;;;;;5119257;27;19984;-76
2023/08/19 12:25:49;;;;;;;;;;;27.90;99.90;;;;;;5106901;27;20808;-76
2023/08/19 12:28:15;;;;;;;;;;;27.70;99.90;;;;;;5122614;27;19930;-76
2023/08/19 12:30:41;;;;;;;;;;;27.60;99.90;;;;;;5124872;27;20715;-77
2023/08/19 12:33:07;;;;;;;;;;;27.40;99.90;;;;;;5120769;27;19923;-77
2023/08/19 12:35:34;;;;;;;;;;;27.20;99.90;;;;;;5101841;27;20301;-78
2023/08/19 12:38:00;;;;;;;;;;;27.00;99.90;;;;;;5120499;27;20401;-76
2023/08/19 12:40:26;;;;;;;;;;;26.80;99.90;;;;;;5105463;27;19935;-76
2023/08/19 12:42:53;;;;;;;;;;;26.50;99.90;;;;;;5121434;27;20014;-77
2023/08/19 12:45:18;;;;;;;;;;;26.20;99.90;;;;;;5123739;27;20341;-77
2023/08/19 12:47:45;;;;;;;;;;;25.40;99.90;;;;;;5124357;27;19978;-77
2023/08/19 12:50:11;;;;;;;;;;;25.90;99.90;;;;;;5136977;27;19973;-77
2023/08/19 12:52:37;;;;;;;;;;;25.90;99.90;;;;;;5100098;27;20439;-76
2023/08/19 12:55:03;;;;;;;;;;;25.80;99.90;;;;;;5118698;27;19927;-77
2023/08/19 12:57:29;;;;;;;;;;;25.60;99.90;;;;;;5121476;27;20300;-75
2023/08/19 12:59:55;;;;;;;;;;;25.50;99.90;;;;;;5124471;27;19923;-76
2023/08/19 13:02:20;;;;;;;;;;;25.40;99.90;;;;;;5095730;27;19923;-76
2023/08/19 13:04:46;;;;;;;;;;;25.30;99.90;;;;;;5121290;27;20501;-76
2023/08/19 13:07:11;;;;;;;;;;;25.30;99.90;;;;;;5129295;27;20705;-76
2023/08/19 13:09:38;;;;;;;;;;;25.20;99.90;;;;;;5121033;27;19931;-75
2023/08/19 13:12:03;;;;;;;;;;;25.20;99.90;;;;;;5109914;27;19973;-77
2023/08/19 13:16:54;;;;;;;2.40;1.65;;;25.20;99.90;;;;;;5081278;27;1957491;-79
2023/08/19 13:19:19;;;;;;;3.25;2.97;;;25.30;99.90;;;;;;5057357;28;20043;-79
2023/08/19 13:21:45;;;;;;;4.72;1.77;;;25.40;99.90;;;;;;5097220;27;20453;-81
2023/08/19 13:24:10;;;;;;;0.93;0.57;;;25.40;99.90;;;;;;5112070;27;20099;-80
2023/08/19 13:26:37;;;;;;;2.13;1.95;;;25.40;99.90;;;;;;5098828;27;20086;-81
2023/08/19 13:29:03;;;;;;;1.40;0.70;;;25.30;99.90;;;;;;5090561;27;20083;-79
2023/08/19 13:31:29;;;;;;;1.13;1.05;;;25.40;99.90;;;;;;5089452;28;20043;-80
2023/08/19 13:33:54;;;;;;;0.50;0.50;;;25.50;99.90;;;;;;5079519;28;20490;-80
2023/08/19 13:36:20;;;;;;;0.50;0.50;;;25.60;99.90;;;;;;5101945;28;20075;-79
2023/08/19 13:38:46;;;;;;;1.65;1.55;;;25.70;99.90;;;;;;5117448;27;20100;-80
2023/08/19 13:41:12;;;;;;;1.40;1.30;;;25.70;99.90;;;;;;5090713;27;20167;-83
2023/08/19 13:43:39;;;;;;;0.75;0.60;;;25.60;99.90;;;;;;5086373;28;20043;-80
2023/08/19 13:46:05;;;;;;;1.10;0.68;;;25.40;99.90;;;;;;5119150;27;20497;-80
2023/08/19 13:48:30;;;;;;;0.50;0.43;;;25.30;99.90;;;;;;5110113;28;20073;-82
2023/08/19 13:50:56;;;;;;;0.98;0.98;;;25.20;99.90;;;;;;5096716;28;20507;-81
2023/08/19 13:53:24;;;;;;;0.55;0.47;;;25.20;99.90;;;;;;5069233;27;20046;-79
2023/08/19 13:55:51;;;;;;;1.42;1.33;;;25.10;99.90;;;;;;5126196;27;20126;-79
2023/08/19 13:58:16;;;;;;;0.40;0.40;;;25.00;99.90;;;;;;5104708;28;20523;-82
2023/08/19 14:00:42;;;;;;;0.10;0.10;;;25.00;99.90;;;;;;5066349;28;20101;-81
2023/08/19 14:03:08;;;;;;;0.77;0.77;;;24.90;99.90;;;;;;5064681;28;20089;-79
2023/08/19 14:05:34;;;;;;;0.85;0.82;;;24.90;99.90;;;;;;5073740;28;20032;-80